Time;durP1;ratioP1;P1;durP2;ratioP2;P2;SDS_P1;SDS_P2;PMS_P1;PMS_P2;Temp;Humidity;BMP_temperature;BMP_pressure;BME280_temperature;BME280_humidity;BME280_pressure;Samples;Min_cycle;Max_cycle;Signal;HPM_P1;HPM_P2
2022/09/11 00:03:14;;;;;;;1999.90;999.90;;;16.60;99.90;;;;;;6763621;88;20190;-80
2022/09/11 00:13:21;;;;;;;1999.90;999.90;;;16.50;99.90;;;;;;6763886;88;20226;-80
2022/09/11 00:23:23;;;;;;;1999.90;999.90;;;16.60;99.90;;;;;;6763307;88;20171;-79
2022/09/11 00:33:24;;;;;;;1999.90;999.90;;;16.40;99.90;;;;;;6760517;88;20221;-79
2022/09/11 00:43:47;;;;;;;1999.90;999.90;;;16.30;99.90;;;;;;6760377;88;20272;-80
2022/09/11 00:53:49;;;;;;;1999.90;999.90;;;16.30;99.90;;;;;;6760894;88;20215;-80
2022/09/11 01:03:50;;;;;;;1999.90;999.90;;;16.40;99.90;;;;;;6761811;88;20201;-79
2022/09/11 01:14:01;;;;;;;1999.90;999.90;;;16.50;99.90;;;;;;6763035;88;20187;-80
2022/09/11 01:24:27;;;;;;;1999.90;999.90;;;16.60;99.90;;;;;;6746234;88;20185;-80
2022/09/11 01:34:51;;;;;;;1999.90;999.90;;;16.70;99.90;;;;;;6748552;88;20306;-79
2022/09/11 01:44:54;;;;;;;1999.90;999.90;;;16.70;99.90;;;;;;6743167;88;20217;-80
2022/09/11 01:55:01;;;;;;;1999.90;999.90;;;16.80;99.90;;;;;;6744296;88;20197;-80
2022/09/11 02:05:15;;;;;;;1999.90;999.90;;;16.80;99.90;;;;;;6747835;88;20181;-80
2022/09/11 02:15:16;;;;;;;1999.90;999.90;;;16.80;99.90;;;;;;6747403;88;20236;-79
2022/09/11 02:25:17;;;;;;;1999.90;999.90;;;16.80;99.90;;;;;;6747223;88;20294;-80
2022/09/11 02:35:18;;;;;;;1999.90;999.90;;;16.70;99.90;;;;;;6747933;88;20788;-79
2022/09/11 02:45:42;;;;;;;1999.90;999.90;;;16.60;99.90;;;;;;6747440;88;20660;-79
2022/09/11 02:55:58;;;;;;;1999.90;999.90;;;16.70;99.90;;;;;;6741043;88;20181;-80
2022/09/11 03:05:59;;;;;;;1999.90;999.90;;;16.60;99.90;;;;;;6683542;77;20234;-75
2022/09/11 03:16:00;;;;;;;1999.90;999.90;;;16.70;99.90;;;;;;6678077;88;20214;-75
2022/09/11 03:26:01;;;;;;;1999.90;999.90;;;16.60;99.90;;;;;;6676008;88;20681;-75
2022/09/11 03:36:02;;;;;;;1999.90;999.90;;;16.50;99.90;;;;;;6678369;88;20341;-75
2022/09/11 03:46:02;;;;;;;1999.90;999.90;;;16.50;99.90;;;;;;6690175;87;20206;-74
2022/09/11 03:56:03;;;;;;;1999.90;999.90;;;16.60;99.90;;;;;;6680413;88;20622;-76
2022/09/11 04:06:05;;;;;;;1999.90;999.90;;;16.50;99.90;;;;;;6684197;87;20277;-73
2022/09/11 04:16:09;;;;;;;1999.90;999.90;;;16.20;99.90;;;;;;6683294;87;20289;-74
2022/09/11 04:26:14;;;;;;;1999.90;999.90;;;16.00;99.90;;;;;;6681161;88;20654;-76
2022/09/11 04:36:17;;;;;;;1999.90;999.90;;;16.00;99.90;;;;;;6677647;87;20686;-76
2022/09/11 04:46:18;;;;;;;1999.90;999.90;;;16.10;99.90;;;;;;6677061;88;20206;-76
2022/09/11 04:56:21;;;;;;;1999.90;999.90;;;16.00;99.90;;;;;;6679745;88;20207;-76
2022/09/11 05:06:22;;;;;;;1999.90;999.90;;;16.00;99.90;;;;;;6677275;87;20192;-76
2022/09/11 05:16:23;;;;;;;1999.90;999.90;;;16.00;99.90;;;;;;6676975;88;20612;-76
2022/09/11 05:26:26;;;;;;;1999.90;999.90;;;15.90;99.90;;;;;;6679876;87;20183;-76
2022/09/11 05:36:29;;;;;;;1999.90;999.90;;;15.90;99.90;;;;;;6676602;88;20283;-76
2022/09/11 05:46:30;;;;;;;1999.90;999.90;;;16.00;99.90;;;;;;6680144;87;20207;-76
2022/09/11 05:56:30;;;;;;;1999.90;999.90;;;16.00;99.90;;;;;;6686084;87;20184;-75
2022/09/11 06:06:31;;;;;;;1999.90;999.90;;;15.90;99.90;;;;;;6673881;88;20221;-75
2022/09/11 06:16:33;;;;;;;1999.90;999.90;;;16.00;99.90;;;;;;6681761;87;20174;-75
2022/09/11 06:26:34;;;;;;;1999.90;999.90;;;16.00;99.90;;;;;;6686844;87;20357;-76
2022/09/11 06:36:34;;;;;;;1999.90;999.90;;;16.10;99.90;;;;;;6682935;87;20185;-76
2022/09/11 06:46:35;;;;;;;1999.90;999.90;;;16.00;99.90;;;;;;6683497;87;20275;-76
2022/09/11 06:56:36;;;;;;;1999.90;999.90;;;16.10;99.90;;;;;;6697181;87;20205;-76
2022/09/11 07:06:37;;;;;;;1999.90;999.90;;;16.10;99.90;;;;;;6684488;87;20227;-76
2022/09/11 07:16:38;;;;;;;1999.90;999.90;;;16.20;99.90;;;;;;6679943;87;20175;-75
2022/09/11 07:26:38;;;;;;;1999.90;999.90;;;16.30;99.90;;;;;;6675152;87;20196;-77
2022/09/11 07:36:39;;;;;;;1999.90;999.90;;;16.40;99.90;;;;;;6685069;87;20205;-76
2022/09/11 07:46:40;;;;;;;1999.90;999.90;;;16.40;99.90;;;;;;6688559;87;20662;-76
2022/09/11 07:56:40;;;;;;;1999.90;999.90;;;16.60;99.90;;;;;;6697012;87;20200;-77
2022/09/11 08:06:42;;;;;;;1999.90;999.90;;;17.00;99.90;;;;;;6697055;87;20680;-79
2022/09/11 08:16:43;;;;;;;1999.90;999.90;;;17.30;99.90;;;;;;6718896;87;20234;-80
2022/09/11 08:26:44;;;;;;;1999.90;999.90;;;17.30;99.90;;;;;;6714378;87;20246;-77
2022/09/11 08:36:45;;;;;;;1999.90;999.90;;;17.00;99.90;;;;;;6685336;87;20287;-77
2022/09/11 08:46:51;;;;;;;1999.90;999.90;;;17.10;99.90;;;;;;6689072;87;20266;-77
2022/09/11 08:56:56;;;;;;;1999.90;999.90;;;17.30;99.90;;;;;;6693230;87;20172;-78
2022/09/11 09:07:38;;;;;;;1999.90;999.90;;;17.40;99.90;;;;;;6727656;77;20209;-78
2022/09/11 09:17:45;;;;;;;1999.90;999.90;;;17.40;99.90;;;;;;6728612;88;20184;-78
2022/09/11 09:28:16;;;;;;;1999.90;999.90;;;17.90;99.90;;;;;;6738162;88;20704;-81
2022/09/11 09:38:21;;;;;;;1999.90;999.90;;;18.40;99.90;;;;;;6722077;88;20199;-78
2022/09/11 09:48:22;;;;;;;;;;;18.90;99.90;;;;;;6739663;88;20635;-79
2022/09/11 09:58:26;;;;;;;1999.90;999.90;;;19.10;99.90;;;;;;6741785;88;20258;-78
2022/09/11 10:08:35;;;;;;;1999.90;999.90;;;19.30;99.90;;;;;;6731721;88;20201;-79
2022/09/11 10:18:43;;;;;;;1999.90;999.90;;;19.80;99.90;;;;;;6724310;88;20711;-80
2022/09/11 10:28:46;;;;;;;1999.90;999.90;;;19.60;99.90;;;;;;6723943;88;20196;-78
2022/09/11 10:38:47;;;;;;;1999.90;999.90;;;20.10;99.90;;;;;;6723608;88;20197;-79
2022/09/11 10:48:58;;;;;;;1999.90;999.90;;;20.40;99.90;;;;;;6725664;88;20313;-80
2022/09/11 10:59:05;;;;;;;1999.90;999.90;;;21.20;99.90;;;;;;6721941;88;21021;-80
2022/09/11 11:09:46;;;;;;;1999.90;999.90;;;20.80;99.90;;;;;;6725190;88;20668;-80
2022/09/11 11:20:25;;;;;;;1999.90;999.90;;;21.30;99.90;;;;;;6721682;88;20218;-80
2022/09/11 11:30:57;;;;;;;1999.90;999.90;;;23.10;99.90;;;;;;6707158;88;20617;-80
2022/09/11 11:41:06;;;;;;;1999.90;999.90;;;24.50;99.90;;;;;;6723569;88;20181;-80
2022/09/11 11:51:14;;;;;;;1999.90;999.90;;;24.50;99.90;;;;;;6709025;88;20195;-82
2022/09/11 12:01:51;;;;;;;1999.90;999.90;;;25.40;99.90;;;;;;6707312;88;20190;-82
2022/09/11 12:11:54;;;;;;;1999.90;999.90;;;25.20;99.90;;;;;;6719041;88;20257;-81
2022/09/11 12:21:54;;;;;;;1999.90;999.90;;;26.50;99.90;;;;;;6741456;88;20232;-80
2022/09/11 12:31:57;;;;;;;1999.90;999.90;;;27.10;99.90;;;;;;6740231;88;20179;-81
2022/09/11 12:42:21;;;;;;;1999.90;999.90;;;26.70;99.90;;;;;;6734833;88;20950;-79
2022/09/11 12:52:30;;;;;;;1999.90;999.90;;;27.60;99.90;;;;;;6738977;88;20669;-79
2022/09/11 13:02:41;;;;;;;1999.90;999.90;;;27.10;99.90;;;;;;6738711;88;20204;-79
2022/09/11 13:12:51;;;;;;;1999.90;999.90;;;26.30;99.90;;;;;;6723870;88;20341;-80
2022/09/11 13:22:51;;;;;;;1999.90;999.90;;;25.50;99.90;;;;;;6723101;88;20199;-79
2022/09/11 13:33:18;;;;;;;1999.90;999.90;;;26.10;99.90;;;;;;6726639;88;20196;-81
2022/09/11 13:43:28;;;;;;;1999.90;999.90;;;26.10;99.90;;;;;;6727736;88;20225;-80
2022/09/11 13:53:29;;;;;;;1999.90;999.90;;;25.70;99.90;;;;;;6738073;88;20226;-79
2022/09/11 14:03:31;;;;;;;1999.90;999.90;;;25.10;99.90;;;;;;6721761;88;20656;-79
2022/09/11 14:13:45;;;;;;;1999.90;999.90;;;25.00;99.90;;;;;;6721595;88;20205;-79
2022/09/11 14:23:54;;;;;;;1999.90;999.90;;;24.30;99.90;;;;;;6721470;88;20279;-80
2022/09/11 14:34:19;;;;;;;1999.90;999.90;;;24.90;99.90;;;;;;6722548;88;20208;-79
2022/09/11 14:44:21;;;;;;;1999.90;999.90;;;24.80;99.90;;;;;;6717117;88;20249;-78
2022/09/11 14:54:21;;;;;;;1999.90;999.90;;;25.10;99.90;;;;;;6726169;88;20617;-80
2022/09/11 15:04:22;;;;;;;1999.90;999.90;;;25.80;99.90;;;;;;6722051;77;20206;-76
2022/09/11 15:14:22;;;;;;;1999.90;999.90;;;26.10;99.90;;;;;;6674799;87;20338;-75
2022/09/11 15:24:24;;;;;;;1999.90;999.90;;;25.50;99.90;;;;;;6688270;87;20200;-77
2022/09/11 15:34:26;;;;;;;1999.90;999.90;;;25.70;99.90;;;;;;6686568;87;20191;-72
2022/09/11 15:44:30;;;;;;;1999.90;999.90;;;25.60;99.90;;;;;;6679915;87;20191;-73
2022/09/11 15:54:30;;;;;;;1999.90;999.90;;;25.30;99.90;;;;;;6665824;87;20210;-73
2022/09/11 16:04:32;;;;;;;1999.90;999.90;;;25.30;99.90;;;;;;6665284;87;20307;-70
2022/09/11 16:14:35;;;;;;;1999.90;999.90;;;24.90;99.90;;;;;;6687522;87;20306;-73
2022/09/11 16:24:36;;;;;;;1999.90;999.90;;;24.50;99.90;;;;;;6676586;87;20284;-74
2022/09/11 16:34:36;;;;;;;1999.90;999.90;;;24.10;99.90;;;;;;6666859;87;20267;-76
2022/09/11 16:44:37;;;;;;;1999.90;999.90;;;23.80;99.90;;;;;;6671629;87;20806;-75
2022/09/11 16:54:38;;;;;;;1999.90;999.90;;;23.70;99.90;;;;;;6674653;87;20357;-75
2022/09/11 17:04:38;;;;;;;1999.90;999.90;;;23.40;99.90;;;;;;6697558;87;20381;-75
2022/09/11 17:14:39;;;;;;;1999.90;999.90;;;22.80;99.90;;;;;;6752640;87;20273;-77
2022/09/11 17:24:39;;;;;;;1999.90;999.90;;;22.30;99.90;;;;;;6748494;87;20283;-76
2022/09/11 17:34:41;;;;;;;1999.90;999.90;;;22.10;99.90;;;;;;6745978;87;20598;-76
2022/09/11 17:44:42;;;;;;;1999.90;999.90;;;21.70;99.90;;;;;;6738304;87;20188;-75
2022/09/11 17:54:42;;;;;;;1999.90;999.90;;;21.30;99.90;;;;;;6741156;87;20337;-76
2022/09/11 18:04:45;;;;;;;1999.90;999.90;;;21.00;99.90;;;;;;6739134;87;20599;-76
2022/09/11 18:14:46;;;;;;;1999.90;999.90;;;20.70;99.90;;;;;;6747213;87;20188;-74
2022/09/11 18:24:47;;;;;;;1999.90;999.90;;;20.40;99.90;;;;;;6755740;87;20275;-77
2022/09/11 18:34:48;;;;;;;1999.90;999.90;;;20.00;99.90;;;;;;6746820;87;20586;-77
2022/09/11 18:44:49;;;;;;;1999.90;999.90;;;19.60;99.90;;;;;;6747447;87;20676;-77
2022/09/11 18:54:49;;;;;;;1999.90;999.90;;;19.40;99.90;;;;;;6755567;87;20185;-76
2022/09/11 19:04:51;;;;;;;1999.90;999.90;;;19.00;99.90;;;;;;6761166;87;20249;-77
2022/09/11 19:14:52;;;;;;;1999.90;999.90;;;18.90;99.90;;;;;;6748192;87;20187;-77
2022/09/11 19:24:52;;;;;;;1999.90;999.90;;;18.60;99.90;;;;;;6745302;87;20233;-78
2022/09/11 19:34:53;;;;;;;1999.90;999.90;;;18.40;99.90;;;;;;6750555;87;20203;-78
2022/09/11 19:44:53;;;;;;;1999.90;999.90;;;18.00;99.90;;;;;;6752349;87;20322;-76
2022/09/11 19:54:54;;;;;;;1999.90;999.90;;;17.70;99.90;;;;;;6753730;87;20204;-76
2022/09/11 20:04:54;;;;;;;1999.90;999.90;;;17.40;99.90;;;;;;6726615;87;20399;-77
2022/09/11 20:14:55;;;;;;;1999.90;999.90;;;17.30;99.90;;;;;;6673334;87;20215;-76
2022/09/11 20:24:56;;;;;;;1999.90;999.90;;;17.20;99.90;;;;;;6671095;87;20188;-76
2022/09/11 20:34:56;;;;;;;1999.90;999.90;;;16.80;99.90;;;;;;6681752;87;20233;-78
2022/09/11 20:44:57;;;;;;;1999.90;999.90;;;16.80;99.90;;;;;;6735497;87;20379;-77
2022/09/11 20:54:57;;;;;;;1999.90;999.90;;;16.60;99.90;;;;;;6693533;87;20215;-76
2022/09/11 21:15:01;;;;;;;1999.90;999.90;;;16.40;99.90;;;;;;6692205;88;20232;-79
2022/09/11 21:25:01;;;;;;;1999.90;999.90;;;16.00;99.90;;;;;;6755390;88;20737;-79
2022/09/11 21:35:02;;;;;;;1999.90;999.90;;;16.00;99.90;;;;;;6758901;88;20221;-80
2022/09/11 21:45:03;;;;;;;1999.90;999.90;;;15.70;99.90;;;;;;6750146;88;20298;-80
2022/09/11 21:55:04;;;;;;;1999.90;999.90;;;15.70;99.90;;;;;;6761623;88;20182;-80
2022/09/11 22:05:05;;;;;;;1999.90;999.90;;;15.50;99.90;;;;;;6756081;87;20199;-79
2022/09/11 22:15:06;;;;;;;1999.90;999.90;;;15.40;99.90;;;;;;6763204;88;20192;-79
2022/09/11 22:25:07;;;;;;;1999.90;999.90;;;15.30;99.90;;;;;;6762015;88;20213;-79
2022/09/11 22:35:08;;;;;;;1999.90;999.90;;;15.30;99.90;;;;;;6753828;88;20181;-79
2022/09/11 22:45:09;;;;;;;1999.90;999.90;;;15.40;99.90;;;;;;6756436;88;20201;-79
2022/09/11 22:55:10;;;;;;;1999.90;999.90;;;15.20;99.90;;;;;;6761463;88;20551;-80
2022/09/11 23:15:29;;;;;;;1999.90;999.90;;;15.10;99.90;;;;;;6757906;88;20213;-79
2022/09/11 23:25:30;;;;;;;1999.90;999.90;;;14.80;99.90;;;;;;6758358;88;20862;-79
2022/09/11 23:35:31;;;;;;;1999.90;999.90;;;14.60;99.90;;;;;;6754173;88;20222;-79
2022/09/11 23:45:31;;;;;;;1999.90;999.90;;;14.50;99.90;;;;;;6754059;88;20257;-79
2022/09/11 23:55:32;;;;;;;1999.90;999.90;;;14.70;99.90;;;;;;6761790;87;20640;-79
